sensor_id;sensor_type;location;lat;lon;timestamp;temperature;humidity
19206;DHT22;59358;52.134;5.596;2022-12-07T00:00:51;3.50;99.90
19206;DHT22;59358;52.134;5.596;2022-12-07T00:03:18;3.50;99.90
19206;DHT22;59358;52.134;5.596;2022-12-07T00:05:45;3.50;99.90
19206;DHT22;59358;52.134;5.596;2022-12-07T00:08:13;3.60;99.90
19206;DHT22;59358;52.134;5.596;2022-12-07T00:10:39;3.60;99.90
19206;DHT22;59358;52.134;5.596;2022-12-07T00:13:06;3.70;99.90
19206;DHT22;59358;52.134;5.596;2022-12-07T00:15:34;3.70;99.90
19206;DHT22;59358;52.134;5.596;2022-12-07T00:18:01;3.70;99.90
19206;DHT22;59358;52.134;5.596;2022-12-07T00:20:28;3.70;99.90
19206;DHT22;59358;52.134;5.596;2022-12-07T00:22:55;3.70;99.90
19206;DHT22;59358;52.134;5.596;2022-12-07T00:25:24;3.60;99.90
19206;DHT22;59358;52.134;5.596;2022-12-07T00:27:52;3.50;99.90
19206;DHT22;59358;52.134;5.596;2022-12-07T00:30:19;3.50;99.90
19206;DHT22;59358;52.134;5.596;2022-12-07T00:32:46;3.40;99.90
19206;DHT22;59358;52.134;5.596;2022-12-07T00:35:13;3.40;99.90
19206;DHT22;59358;52.134;5.596;2022-12-07T00:37:40;3.30;99.90
19206;DHT22;59358;52.134;5.596;2022-12-07T00:40:07;3.30;99.90
19206;DHT22;59358;52.134;5.596;2022-12-07T00:42:35;3.20;99.90
19206;DHT22;59358;52.134;5.596;2022-12-07T00:45:03;3.10;99.90
19206;DHT22;59358;52.134;5.596;2022-12-07T00:47:30;3.10;99.90
19206;DHT22;59358;52.134;5.596;2022-12-07T00:49:56;3.10;99.90
19206;DHT22;59358;52.134;5.596;2022-12-07T00:52:23;3.00;99.90
19206;DHT22;59358;52.134;5.596;2022-12-07T00:54:51;3.00;99.90
19206;DHT22;59358;52.134;5.596;2022-12-07T00:57:18;3.00;99.90
19206;DHT22;59358;52.134;5.596;2022-12-07T00:59:46;2.90;99.90
19206;DHT22;59358;52.134;5.596;2022-12-07T01:02:13;2.90;99.90
19206;DHT22;59358;52.134;5.596;2022-12-07T01:04:39;2.90;99.90
19206;DHT22;59358;52.134;5.596;2022-12-07T01:07:06;2.90;99.90
19206;DHT22;59358;52.134;5.596;2022-12-07T01:09:34;2.90;99.90
19206;DHT22;59358;52.134;5.596;2022-12-07T01:12:04;2.90;99.90
19206;DHT22;59358;52.134;5.596;2022-12-07T01:14:31;3.00;99.90
19206;DHT22;59358;52.134;5.596;2022-12-07T01:16:59;2.90;99.90
19206;DHT22;59358;52.134;5.596;2022-12-07T01:19:26;2.90;99.90
19206;DHT22;59358;52.134;5.596;2022-12-07T01:21:53;2.90;99.90
19206;DHT22;59358;52.134;5.596;2022-12-07T01:24:19;2.90;99.90
19206;DHT22;59358;52.134;5.596;2022-12-07T01:26:48;2.90;99.90
19206;DHT22;59358;52.134;5.596;2022-12-07T01:29:15;2.80;99.90
19206;DHT22;59358;52.134;5.596;2022-12-07T01:31:42;2.80;99.90
19206;DHT22;59358;52.134;5.596;2022-12-07T01:34:10;2.80;99.90
19206;DHT22;59358;52.134;5.596;2022-12-07T01:36:37;2.80;99.90
19206;DHT22;59358;52.134;5.596;2022-12-07T01:39:05;2.80;99.90
19206;DHT22;59358;52.134;5.596;2022-12-07T01:41:35;2.70;99.90
19206;DHT22;59358;52.134;5.596;2022-12-07T01:44:14;2.70;99.90
19206;DHT22;59358;52.134;5.596;2022-12-07T01:46:42;2.70;99.90
19206;DHT22;59358;52.134;5.596;2022-12-07T01:49:16;2.60;99.90
19206;DHT22;59358;52.134;5.596;2022-12-07T01:51:45;2.60;99.90
19206;DHT22;59358;52.134;5.596;2022-12-07T01:54:27;2.60;99.90
19206;DHT22;59358;52.134;5.596;2022-12-07T01:56:56;2.60;99.90
19206;DHT22;59358;52.134;5.596;2022-12-07T01:59:25;2.50;99.90
19206;DHT22;59358;52.134;5.596;2022-12-07T02:01:53;2.50;99.90
19206;DHT22;59358;52.134;5.596;2022-12-07T02:04:21;2.60;99.90
19206;DHT22;59358;52.134;5.596;2022-12-07T02:06:48;2.60;99.90
19206;DHT22;59358;52.134;5.596;2022-12-07T02:09:16;2.60;99.90
19206;DHT22;59358;52.134;5.596;2022-12-07T02:11:43;2.60;99.90
19206;DHT22;59358;52.134;5.596;2022-12-07T02:14:10;2.60;99.90
19206;DHT22;59358;52.134;5.596;2022-12-07T02:16:46;2.60;99.90
19206;DHT22;59358;52.134;5.596;2022-12-07T02:19:39;2.60;99.90
19206;DHT22;59358;52.134;5.596;2022-12-07T02:22:24;2.60;99.90
19206;DHT22;59358;52.134;5.596;2022-12-07T02:24:58;2.70;99.90
19206;DHT22;59358;52.134;5.596;2022-12-07T02:27:45;2.80;99.90
19206;DHT22;59358;52.134;5.596;2022-12-07T02:30:15;2.80;99.90
19206;DHT22;59358;52.134;5.596;2022-12-07T02:32:48;3.00;99.90
19206;DHT22;59358;52.134;5.596;2022-12-07T02:35:22;3.00;99.90
19206;DHT22;59358;52.134;5.596;2022-12-07T02:37:58;3.10;99.90
19206;DHT22;59358;52.134;5.596;2022-12-07T02:40:29;3.10;99.90
19206;DHT22;59358;52.134;5.596;2022-12-07T02:43:04;3.20;99.90
19206;DHT22;59358;52.134;5.596;2022-12-07T02:45:38;3.30;99.90
19206;DHT22;59358;52.134;5.596;2022-12-07T02:48:07;3.40;99.90
19206;DHT22;59358;52.134;5.596;2022-12-07T02:50:36;3.40;99.90
19206;DHT22;59358;52.134;5.596;2022-12-07T02:53:03;3.60;99.90
19206;DHT22;59358;52.134;5.596;2022-12-07T02:55:33;3.50;99.90
19206;DHT22;59358;52.134;5.596;2022-12-07T02:58:16;3.60;99.90
19206;DHT22;59358;52.134;5.596;2022-12-07T03:00:54;3.60;99.90
19206;DHT22;59358;52.134;5.596;2022-12-07T03:03:23;3.60;99.90
19206;DHT22;59358;52.134;5.596;2022-12-07T03:06:10;3.60;99.90
19206;DHT22;59358;52.134;5.596;2022-12-07T03:08:46;3.60;99.90
19206;DHT22;59358;52.134;5.596;2022-12-07T03:11:17;3.60;99.90
19206;DHT22;59358;52.134;5.596;2022-12-07T03:13:53;3.60;99.90
19206;DHT22;59358;52.134;5.596;2022-12-07T03:16:27;3.60;99.90
19206;DHT22;59358;52.134;5.596;2022-12-07T03:18:59;3.60;99.90
19206;DHT22;59358;52.134;5.596;2022-12-07T03:21:32;3.60;99.90
19206;DHT22;59358;52.134;5.596;2022-12-07T03:24:04;3.50;99.90
19206;DHT22;59358;52.134;5.596;2022-12-07T03:26:35;3.50;99.90
19206;DHT22;59358;52.134;5.596;2022-12-07T03:29:07;3.50;99.90
19206;DHT22;59358;52.134;5.596;2022-12-07T03:31:39;3.50;99.90
19206;DHT22;59358;52.134;5.596;2022-12-07T03:34:11;3.50;99.90
19206;DHT22;59358;52.134;5.596;2022-12-07T03:36:46;3.60;99.90
19206;DHT22;59358;52.134;5.596;2022-12-07T03:39:19;3.60;99.90
19206;DHT22;59358;52.134;5.596;2022-12-07T03:41:48;3.60;99.90
19206;DHT22;59358;52.134;5.596;2022-12-07T03:44:16;3.60;99.90
19206;DHT22;59358;52.134;5.596;2022-12-07T03:46:50;3.60;99.90
19206;DHT22;59358;52.134;5.596;2022-12-07T03:49:22;3.50;99.90
19206;DHT22;59358;52.134;5.596;2022-12-07T03:51:55;3.40;99.90
19206;DHT22;59358;52.134;5.596;2022-12-07T03:54:28;3.30;99.90
19206;DHT22;59358;52.134;5.596;2022-12-07T03:56:57;3.20;99.90
19206;DHT22;59358;52.134;5.596;2022-12-07T03:59:25;3.20;99.90
19206;DHT22;59358;52.134;5.596;2022-12-07T04:01:55;3.20;99.90
19206;DHT22;59358;52.134;5.596;2022-12-07T04:04:23;3.20;99.90
19206;DHT22;59358;52.134;5.596;2022-12-07T04:06:50;3.20;99.90
19206;DHT22;59358;52.134;5.596;2022-12-07T04:09:17;3.30;99.90
19206;DHT22;59358;52.134;5.596;2022-12-07T04:11:44;3.30;99.90
19206;DHT22;59358;52.134;5.596;2022-12-07T04:14:13;3.30;99.90
19206;DHT22;59358;52.134;5.596;2022-12-07T04:16:46;3.30;99.90
19206;DHT22;59358;52.134;5.596;2022-12-07T04:19:15;3.30;99.90
19206;DHT22;59358;52.134;5.596;2022-12-07T04:21:43;3.30;99.90
19206;DHT22;59358;52.134;5.596;2022-12-07T04:24:11;3.30;99.90
19206;DHT22;59358;52.134;5.596;2022-12-07T04:26:39;3.40;99.90
19206;DHT22;59358;52.134;5.596;2022-12-07T04:29:06;3.40;99.90
19206;DHT22;59358;52.134;5.596;2022-12-07T04:31:34;3.40;99.90
19206;DHT22;59358;52.134;5.596;2022-12-07T04:34:00;3.40;99.90
19206;DHT22;59358;52.134;5.596;2022-12-07T04:36:29;3.40;99.90
19206;DHT22;59358;52.134;5.596;2022-12-07T04:38:56;3.30;99.90
19206;DHT22;59358;52.134;5.596;2022-12-07T04:41:24;3.30;99.90
19206;DHT22;59358;52.134;5.596;2022-12-07T04:43:54;3.20;99.90
19206;DHT22;59358;52.134;5.596;2022-12-07T04:46:21;3.10;99.90
19206;DHT22;59358;52.134;5.596;2022-12-07T04:48:48;3.00;99.90
19206;DHT22;59358;52.134;5.596;2022-12-07T04:51:19;3.10;99.90
19206;DHT22;59358;52.134;5.596;2022-12-07T04:53:48;3.10;99.90
19206;DHT22;59358;52.134;5.596;2022-12-07T04:56:16;3.10;99.90
19206;DHT22;59358;52.134;5.596;2022-12-07T04:58:44;3.00;99.90
19206;DHT22;59358;52.134;5.596;2022-12-07T05:01:12;3.00;99.90
19206;DHT22;59358;52.134;5.596;2022-12-07T05:03:39;3.10;99.90
19206;DHT22;59358;52.134;5.596;2022-12-07T05:06:07;3.20;99.90
19206;DHT22;59358;52.134;5.596;2022-12-07T05:08:34;3.20;99.90
19206;DHT22;59358;52.134;5.596;2022-12-07T05:11:03;3.20;99.90
19206;DHT22;59358;52.134;5.596;2022-12-07T05:13:31;3.10;99.90
19206;DHT22;59358;52.134;5.596;2022-12-07T05:15:58;3.00;99.90
19206;DHT22;59358;52.134;5.596;2022-12-07T05:18:25;3.00;99.90
19206;DHT22;59358;52.134;5.596;2022-12-07T05:20:52;2.90;99.90
19206;DHT22;59358;52.134;5.596;2022-12-07T05:23:19;2.90;99.90
19206;DHT22;59358;52.134;5.596;2022-12-07T05:25:46;2.80;99.90
19206;DHT22;59358;52.134;5.596;2022-12-07T05:28:14;2.70;99.90
19206;DHT22;59358;52.134;5.596;2022-12-07T05:30:41;2.70;99.90
19206;DHT22;59358;52.134;5.596;2022-12-07T05:33:08;2.70;99.90
19206;DHT22;59358;52.134;5.596;2022-12-07T05:35:35;2.70;99.90
19206;DHT22;59358;52.134;5.596;2022-12-07T05:38:03;2.60;99.90
19206;DHT22;59358;52.134;5.596;2022-12-07T05:40:30;2.60;99.90
19206;DHT22;59358;52.134;5.596;2022-12-07T05:42:56;2.50;99.90
19206;DHT22;59358;52.134;5.596;2022-12-07T05:45:25;2.50;99.90
19206;DHT22;59358;52.134;5.596;2022-12-07T05:47:51;2.50;99.90
19206;DHT22;59358;52.134;5.596;2022-12-07T05:50:18;2.40;99.90
19206;DHT22;59358;52.134;5.596;2022-12-07T05:52:45;2.40;99.90
19206;DHT22;59358;52.134;5.596;2022-12-07T05:55:12;2.50;99.90
19206;DHT22;59358;52.134;5.596;2022-12-07T05:57:39;2.60;99.90
19206;DHT22;59358;52.134;5.596;2022-12-07T06:00:27;2.60;99.90
19206;DHT22;59358;52.134;5.596;2022-12-07T06:02:53;2.70;99.90
19206;DHT22;59358;52.134;5.596;2022-12-07T06:05:20;2.70;99.90
19206;DHT22;59358;52.134;5.596;2022-12-07T06:07:46;2.70;99.90
19206;DHT22;59358;52.134;5.596;2022-12-07T06:10:13;2.70;99.90
19206;DHT22;59358;52.134;5.596;2022-12-07T06:12:40;2.80;99.90
19206;DHT22;59358;52.134;5.596;2022-12-07T06:15:09;2.90;99.90
19206;DHT22;59358;52.134;5.596;2022-12-07T06:17:39;3.00;99.90
19206;DHT22;59358;52.134;5.596;2022-12-07T06:20:07;3.00;99.90
19206;DHT22;59358;52.134;5.596;2022-12-07T06:22:34;3.00;99.90
19206;DHT22;59358;52.134;5.596;2022-12-07T06:25:00;3.10;99.90
19206;DHT22;59358;52.134;5.596;2022-12-07T06:27:31;3.00;99.90
19206;DHT22;59358;52.134;5.596;2022-12-07T06:29:58;3.00;99.90
19206;DHT22;59358;52.134;5.596;2022-12-07T06:32:25;3.00;99.90
19206;DHT22;59358;52.134;5.596;2022-12-07T06:34:53;3.00;99.90
19206;DHT22;59358;52.134;5.596;2022-12-07T06:37:20;3.00;99.90
19206;DHT22;59358;52.134;5.596;2022-12-07T06:39:47;2.90;99.90
19206;DHT22;59358;52.134;5.596;2022-12-07T06:42:14;2.80;99.90
19206;DHT22;59358;52.134;5.596;2022-12-07T06:44:40;2.80;99.90
19206;DHT22;59358;52.134;5.596;2022-12-07T06:47:07;2.80;99.90
19206;DHT22;59358;52.134;5.596;2022-12-07T06:49:34;2.80;99.90
19206;DHT22;59358;52.134;5.596;2022-12-07T06:52:04;2.70;99.90
19206;DHT22;59358;52.134;5.596;2022-12-07T06:54:31;2.80;99.90
19206;DHT22;59358;52.134;5.596;2022-12-07T06:56:58;2.80;99.90
19206;DHT22;59358;52.134;5.596;2022-12-07T06:59:25;2.80;99.90
19206;DHT22;59358;52.134;5.596;2022-12-07T07:01:51;2.80;99.90
19206;DHT22;59358;52.134;5.596;2022-12-07T07:04:18;2.80;99.90
19206;DHT22;59358;52.134;5.596;2022-12-07T07:06:45;2.60;99.90
19206;DHT22;59358;52.134;5.596;2022-12-07T07:09:13;2.60;99.90
19206;DHT22;59358;52.134;5.596;2022-12-07T07:11:41;2.70;99.90
19206;DHT22;59358;52.134;5.596;2022-12-07T07:14:07;2.60;99.90
19206;DHT22;59358;52.134;5.596;2022-12-07T07:16:34;2.50;99.90
19206;DHT22;59358;52.134;5.596;2022-12-07T07:19:01;2.50;99.90
19206;DHT22;59358;52.134;5.596;2022-12-07T07:21:28;2.50;99.90
19206;DHT22;59358;52.134;5.596;2022-12-07T07:23:54;2.40;99.90
19206;DHT22;59358;52.134;5.596;2022-12-07T07:26:23;2.50;99.90
19206;DHT22;59358;52.134;5.596;2022-12-07T07:28:50;2.40;99.90
19206;DHT22;59358;52.134;5.596;2022-12-07T07:31:17;2.40;99.90
19206;DHT22;59358;52.134;5.596;2022-12-07T07:33:45;2.40;99.90
19206;DHT22;59358;52.134;5.596;2022-12-07T07:36:12;2.40;99.90
19206;DHT22;59358;52.134;5.596;2022-12-07T07:38:39;2.40;99.90
19206;DHT22;59358;52.134;5.596;2022-12-07T07:41:05;2.30;99.90
19206;DHT22;59358;52.134;5.596;2022-12-07T07:43:34;2.30;99.90
19206;DHT22;59358;52.134;5.596;2022-12-07T07:46:00;2.40;99.90
19206;DHT22;59358;52.134;5.596;2022-12-07T07:48:27;2.40;99.90
19206;DHT22;59358;52.134;5.596;2022-12-07T07:50:54;2.40;99.90
19206;DHT22;59358;52.134;5.596;2022-12-07T07:53:21;2.50;99.90
19206;DHT22;59358;52.134;5.596;2022-12-07T07:55:51;2.60;99.90
19206;DHT22;59358;52.134;5.596;2022-12-07T07:58:19;2.80;99.90
19206;DHT22;59358;52.134;5.596;2022-12-07T08:00:47;2.90;99.90
19206;DHT22;59358;52.134;5.596;2022-12-07T08:03:14;3.00;99.90
19206;DHT22;59358;52.134;5.596;2022-12-07T08:05:41;3.00;99.90
19206;DHT22;59358;52.134;5.596;2022-12-07T08:08:08;3.00;99.90
19206;DHT22;59358;52.134;5.596;2022-12-07T08:10:35;3.00;99.90
19206;DHT22;59358;52.134;5.596;2022-12-07T08:13:03;3.00;99.90
19206;DHT22;59358;52.134;5.596;2022-12-07T08:15:41;3.00;99.90
19206;DHT22;59358;52.134;5.596;2022-12-07T08:18:10;3.00;99.90
19206;DHT22;59358;52.134;5.596;2022-12-07T08:20:38;3.10;99.90
19206;DHT22;59358;52.134;5.596;2022-12-07T08:23:06;3.10;99.90
19206;DHT22;59358;52.134;5.596;2022-12-07T08:25:34;3.10;99.90
19206;DHT22;59358;52.134;5.596;2022-12-07T08:28:01;3.20;99.90
19206;DHT22;59358;52.134;5.596;2022-12-07T08:30:29;3.30;99.90
19206;DHT22;59358;52.134;5.596;2022-12-07T08:32:56;3.30;99.90
19206;DHT22;59358;52.134;5.596;2022-12-07T08:35:24;3.50;99.90
19206;DHT22;59358;52.134;5.596;2022-12-07T08:37:51;3.60;99.90
19206;DHT22;59358;52.134;5.596;2022-12-07T08:40:18;3.70;99.90
19206;DHT22;59358;52.134;5.596;2022-12-07T08:42:48;3.80;99.90
19206;DHT22;59358;52.134;5.596;2022-12-07T08:45:17;3.90;99.90
19206;DHT22;59358;52.134;5.596;2022-12-07T08:47:47;4.00;99.90
19206;DHT22;59358;52.134;5.596;2022-12-07T08:50:14;4.10;99.90
19206;DHT22;59358;52.134;5.596;2022-12-07T08:52:43;4.20;99.90
19206;DHT22;59358;52.134;5.596;2022-12-07T08:55:11;4.30;99.90
19206;DHT22;59358;52.134;5.596;2022-12-07T08:57:39;4.40;99.90
19206;DHT22;59358;52.134;5.596;2022-12-07T09:00:08;4.50;99.90
19206;DHT22;59358;52.134;5.596;2022-12-07T09:02:36;4.50;99.90
19206;DHT22;59358;52.134;5.596;2022-12-07T09:05:03;4.50;99.90
19206;DHT22;59358;52.134;5.596;2022-12-07T09:07:31;4.40;99.90
19206;DHT22;59358;52.134;5.596;2022-12-07T09:10:00;4.40;99.90
19206;DHT22;59358;52.134;5.596;2022-12-07T09:12:27;4.40;99.90
19206;DHT22;59358;52.134;5.596;2022-12-07T09:14:53;4.40;99.90
19206;DHT22;59358;52.134;5.596;2022-12-07T09:17:20;4.40;99.90
19206;DHT22;59358;52.134;5.596;2022-12-07T09:19:47;4.40;99.90
19206;DHT22;59358;52.134;5.596;2022-12-07T09:22:14;4.50;99.90
19206;DHT22;59358;52.134;5.596;2022-12-07T09:24:41;4.60;99.90
19206;DHT22;59358;52.134;5.596;2022-12-07T09:27:10;4.60;99.90
19206;DHT22;59358;52.134;5.596;2022-12-07T09:29:37;4.60;99.90
19206;DHT22;59358;52.134;5.596;2022-12-07T09:32:04;4.70;99.90
19206;DHT22;59358;52.134;5.596;2022-12-07T09:34:31;4.90;99.90
19206;DHT22;59358;52.134;5.596;2022-12-07T09:36:58;5.10;99.90
19206;DHT22;59358;52.134;5.596;2022-12-07T09:39:25;5.20;99.90
19206;DHT22;59358;52.134;5.596;2022-12-07T09:41:53;5.20;99.90
19206;DHT22;59358;52.134;5.596;2022-12-07T09:44:24;5.10;99.90
19206;DHT22;59358;52.134;5.596;2022-12-07T09:46:51;5.10;99.90
19206;DHT22;59358;52.134;5.596;2022-12-07T09:49:20;5.00;99.90
19206;DHT22;59358;52.134;5.596;2022-12-07T09:51:48;5.00;99.90
19206;DHT22;59358;52.134;5.596;2022-12-07T09:54:25;5.00;99.90
19206;DHT22;59358;52.134;5.596;2022-12-07T09:56:53;5.00;99.90
19206;DHT22;59358;52.134;5.596;2022-12-07T09:59:21;4.90;99.90
19206;DHT22;59358;52.134;5.596;2022-12-07T10:01:49;4.90;99.90
19206;DHT22;59358;52.134;5.596;2022-12-07T10:04:19;4.90;99.90
19206;DHT22;59358;52.134;5.596;2022-12-07T10:06:47;5.00;99.90
19206;DHT22;59358;52.134;5.596;2022-12-07T10:09:18;5.10;99.90
19206;DHT22;59358;52.134;5.596;2022-12-07T10:12:03;5.10;99.90
19206;DHT22;59358;52.134;5.596;2022-12-07T10:14:33;5.20;99.90
19206;DHT22;59358;52.134;5.596;2022-12-07T10:17:01;5.20;99.90
19206;DHT22;59358;52.134;5.596;2022-12-07T10:19:30;5.20;99.90
19206;DHT22;59358;52.134;5.596;2022-12-07T10:22:09;5.20;99.90
19206;DHT22;59358;52.134;5.596;2022-12-07T10:24:36;5.30;99.90
19206;DHT22;59358;52.134;5.596;2022-12-07T10:27:05;5.40;99.90
19206;DHT22;59358;52.134;5.596;2022-12-07T10:29:36;5.40;99.90
19206;DHT22;59358;52.134;5.596;2022-12-07T10:32:05;5.50;99.90
19206;DHT22;59358;52.134;5.596;2022-12-07T10:34:34;5.50;99.90
19206;DHT22;59358;52.134;5.596;2022-12-07T10:37:16;5.60;99.90
19206;DHT22;59358;52.134;5.596;2022-12-07T10:39:45;5.70;99.90
19206;DHT22;59358;52.134;5.596;2022-12-07T10:42:20;5.70;99.90
19206;DHT22;59358;52.134;5.596;2022-12-07T10:44:50;5.70;99.90
19206;DHT22;59358;52.134;5.596;2022-12-07T10:47:36;5.60;99.90
19206;DHT22;59358;52.134;5.596;2022-12-07T10:50:23;5.80;99.90
19206;DHT22;59358;52.134;5.596;2022-12-07T10:53:19;6.00;99.90
19206;DHT22;59358;52.134;5.596;2022-12-07T10:58:55;6.50;99.90
19206;DHT22;59358;52.134;5.596;2022-12-07T11:01:31;6.70;99.90
19206;DHT22;59358;52.134;5.596;2022-12-07T11:04:18;6.80;99.90
19206;DHT22;59358;52.134;5.596;2022-12-07T11:06:54;6.70;99.90
19206;DHT22;59358;52.134;5.596;2022-12-07T11:12:26;7.10;99.90
19206;DHT22;59358;52.134;5.596;2022-12-07T11:15:00;7.50;99.90
19206;DHT22;59358;52.134;5.596;2022-12-07T11:17:35;7.50;99.90
19206;DHT22;59358;52.134;5.596;2022-12-07T11:20:15;7.30;99.90
19206;DHT22;59358;52.134;5.596;2022-12-07T11:22:52;7.10;99.90
19206;DHT22;59358;52.134;5.596;2022-12-07T11:25:27;7.00;99.90
19206;DHT22;59358;52.134;5.596;2022-12-07T11:28:11;7.00;99.90
19206;DHT22;59358;52.134;5.596;2022-12-07T11:30:47;6.80;99.90
19206;DHT22;59358;52.134;5.596;2022-12-07T11:33:19;6.70;99.90
19206;DHT22;59358;52.134;5.596;2022-12-07T11:35:57;6.60;99.90
19206;DHT22;59358;52.134;5.596;2022-12-07T11:38:33;6.60;99.90
19206;DHT22;59358;52.134;5.596;2022-12-07T11:41:05;6.50;99.90
19206;DHT22;59358;52.134;5.596;2022-12-07T11:43:51;6.40;99.90
19206;DHT22;59358;52.134;5.596;2022-12-07T11:46:20;6.50;99.90
19206;DHT22;59358;52.134;5.596;2022-12-07T11:48:57;6.70;99.90
19206;DHT22;59358;52.134;5.596;2022-12-07T11:51:25;7.00;99.90
19206;DHT22;59358;52.134;5.596;2022-12-07T11:53:56;7.30;99.90
19206;DHT22;59358;52.134;5.596;2022-12-07T11:56:26;7.60;99.90
19206;DHT22;59358;52.134;5.596;2022-12-07T11:58:56;7.80;99.90
19206;DHT22;59358;52.134;5.596;2022-12-07T12:01:35;7.80;99.90
19206;DHT22;59358;52.134;5.596;2022-12-07T12:04:18;7.90;99.90
19206;DHT22;59358;52.134;5.596;2022-12-07T12:06:50;8.10;99.90
19206;DHT22;59358;52.134;5.596;2022-12-07T12:09:21;8.30;99.90
19206;DHT22;59358;52.134;5.596;2022-12-07T12:12:12;8.40;99.90
19206;DHT22;59358;52.134;5.596;2022-12-07T12:14:52;8.30;99.90
19206;DHT22;59358;52.134;5.596;2022-12-07T12:17:34;8.40;99.90
19206;DHT22;59358;52.134;5.596;2022-12-07T12:20:13;8.40;99.90
19206;DHT22;59358;52.134;5.596;2022-12-07T12:22:44;8.50;99.90
19206;DHT22;59358;52.134;5.596;2022-12-07T12:25:19;8.50;99.90
19206;DHT22;59358;52.134;5.596;2022-12-07T12:27:49;8.30;99.90
19206;DHT22;59358;52.134;5.596;2022-12-07T12:30:31;8.30;99.90
19206;DHT22;59358;52.134;5.596;2022-12-07T12:33:04;8.40;99.90
19206;DHT22;59358;52.134;5.596;2022-12-07T12:35:37;8.50;99.90
19206;DHT22;59358;52.134;5.596;2022-12-07T12:38:27;8.40;99.90
19206;DHT22;59358;52.134;5.596;2022-12-07T12:40:56;8.30;99.90
19206;DHT22;59358;52.134;5.596;2022-12-07T12:43:44;8.30;99.90
19206;DHT22;59358;52.134;5.596;2022-12-07T12:46:37;8.40;99.90
19206;DHT22;59358;52.134;5.596;2022-12-07T12:58:40;9.00;99.90
19206;DHT22;59358;52.134;5.596;2022-12-07T13:01:36;8.80;99.90
19206;DHT22;59358;52.134;5.596;2022-12-07T13:04:28;8.60;99.90
19206;DHT22;59358;52.134;5.596;2022-12-07T13:06:55;8.30;99.90
19206;DHT22;59358;52.134;5.596;2022-12-07T13:09:25;8.40;99.90
19206;DHT22;59358;52.134;5.596;2022-12-07T13:12:01;8.40;99.90
19206;DHT22;59358;52.134;5.596;2022-12-07T13:14:43;8.20;99.90
19206;DHT22;59358;52.134;5.596;2022-12-07T13:23:26;7.50;99.90
19206;DHT22;59358;52.134;5.596;2022-12-07T13:26:02;7.50;99.90
19206;DHT22;59358;52.134;5.596;2022-12-07T13:28:36;7.20;99.90
19206;DHT22;59358;52.134;5.596;2022-12-07T13:31:16;7.00;99.90
19206;DHT22;59358;52.134;5.596;2022-12-07T13:33:46;6.50;99.90
19206;DHT22;59358;52.134;5.596;2022-12-07T13:36:19;6.20;99.90
19206;DHT22;59358;52.134;5.596;2022-12-07T13:38:56;6.10;99.90
19206;DHT22;59358;52.134;5.596;2022-12-07T13:41:24;6.10;99.90
19206;DHT22;59358;52.134;5.596;2022-12-07T13:44:01;6.00;99.90
19206;DHT22;59358;52.134;5.596;2022-12-07T13:46:37;6.00;99.90
19206;DHT22;59358;52.134;5.596;2022-12-07T13:49:17;6.00;99.90
19206;DHT22;59358;52.134;5.596;2022-12-07T13:51:45;6.10;99.90
19206;DHT22;59358;52.134;5.596;2022-12-07T13:54:13;6.30;99.90
19206;DHT22;59358;52.134;5.596;2022-12-07T13:56:41;6.40;99.90
19206;DHT22;59358;52.134;5.596;2022-12-07T13:59:14;6.50;99.90
19206;DHT22;59358;52.134;5.596;2022-12-07T14:01:45;6.60;99.90
19206;DHT22;59358;52.134;5.596;2022-12-07T14:06:59;6.70;99.90
19206;DHT22;59358;52.134;5.596;2022-12-07T14:09:28;6.70;99.90
19206;DHT22;59358;52.134;5.596;2022-12-07T14:11:56;6.60;99.90
19206;DHT22;59358;52.134;5.596;2022-12-07T14:14:26;6.70;99.90
19206;DHT22;59358;52.134;5.596;2022-12-07T14:17:00;6.80;99.90
19206;DHT22;59358;52.134;5.596;2022-12-07T14:19:48;6.70;99.90
19206;DHT22;59358;52.134;5.596;2022-12-07T14:22:31;6.70;99.90
19206;DHT22;59358;52.134;5.596;2022-12-07T14:25:16;6.80;99.90
19206;DHT22;59358;52.134;5.596;2022-12-07T14:27:55;6.70;99.90
19206;DHT22;59358;52.134;5.596;2022-12-07T14:30:26;6.50;99.90
19206;DHT22;59358;52.134;5.596;2022-12-07T14:32:57;6.40;99.90
19206;DHT22;59358;52.134;5.596;2022-12-07T14:35:24;6.40;99.90
19206;DHT22;59358;52.134;5.596;2022-12-07T14:37:51;6.40;99.90
19206;DHT22;59358;52.134;5.596;2022-12-07T14:40:20;6.40;99.90
19206;DHT22;59358;52.134;5.596;2022-12-07T14:42:49;6.40;99.90
19206;DHT22;59358;52.134;5.596;2022-12-07T14:45:18;6.30;99.90
19206;DHT22;59358;52.134;5.596;2022-12-07T14:47:47;6.20;99.90
19206;DHT22;59358;52.134;5.596;2022-12-07T14:50:15;6.10;99.90
19206;DHT22;59358;52.134;5.596;2022-12-07T14:52:44;6.10;99.90
19206;DHT22;59358;52.134;5.596;2022-12-07T14:55:14;6.00;99.90
19206;DHT22;59358;52.134;5.596;2022-12-07T14:57:42;6.00;99.90
19206;DHT22;59358;52.134;5.596;2022-12-07T15:00:13;6.00;99.90
19206;DHT22;59358;52.134;5.596;2022-12-07T15:02:40;6.00;99.90
19206;DHT22;59358;52.134;5.596;2022-12-07T15:05:09;6.00;99.90
19206;DHT22;59358;52.134;5.596;2022-12-07T15:07:35;6.00;99.90
19206;DHT22;59358;52.134;5.596;2022-12-07T15:10:03;5.90;99.90
19206;DHT22;59358;52.134;5.596;2022-12-07T15:12:30;5.90;99.90
19206;DHT22;59358;52.134;5.596;2022-12-07T15:14:57;5.90;99.90
19206;DHT22;59358;52.134;5.596;2022-12-07T15:17:24;5.90;99.90
19206;DHT22;59358;52.134;5.596;2022-12-07T15:19:50;5.90;99.90
19206;DHT22;59358;52.134;5.596;2022-12-07T15:22:18;5.80;99.90
19206;DHT22;59358;52.134;5.596;2022-12-07T15:24:45;5.80;99.90
19206;DHT22;59358;52.134;5.596;2022-12-07T15:27:12;5.80;99.90
19206;DHT22;59358;52.134;5.596;2022-12-07T15:29:39;5.70;99.90
19206;DHT22;59358;52.134;5.596;2022-12-07T15:32:06;5.80;99.90
19206;DHT22;59358;52.134;5.596;2022-12-07T15:34:32;5.80;99.90
19206;DHT22;59358;52.134;5.596;2022-12-07T15:36:59;5.80;99.90
19206;DHT22;59358;52.134;5.596;2022-12-07T15:39:27;5.80;99.90
19206;DHT22;59358;52.134;5.596;2022-12-07T15:41:54;5.70;99.90
19206;DHT22;59358;52.134;5.596;2022-12-07T15:44:21;5.70;99.90
19206;DHT22;59358;52.134;5.596;2022-12-07T15:47:05;5.60;99.90
19206;DHT22;59358;52.134;5.596;2022-12-07T15:49:32;5.60;99.90
19206;DHT22;59358;52.134;5.596;2022-12-07T15:51:59;5.60;99.90
19206;DHT22;59358;52.134;5.596;2022-12-07T15:54:28;5.50;99.90
19206;DHT22;59358;52.134;5.596;2022-12-07T15:56:56;5.40;99.90
19206;DHT22;59358;52.134;5.596;2022-12-07T15:59:23;5.40;99.90
19206;DHT22;59358;52.134;5.596;2022-12-07T16:01:50;5.40;99.90
19206;DHT22;59358;52.134;5.596;2022-12-07T16:04:17;5.40;99.90
19206;DHT22;59358;52.134;5.596;2022-12-07T16:06:44;5.30;99.90
19206;DHT22;59358;52.134;5.596;2022-12-07T16:09:10;5.30;99.90
19206;DHT22;59358;52.134;5.596;2022-12-07T16:11:39;5.20;99.90
19206;DHT22;59358;52.134;5.596;2022-12-07T16:14:05;5.20;99.90
19206;DHT22;59358;52.134;5.596;2022-12-07T16:16:32;5.20;99.90
19206;DHT22;59358;52.134;5.596;2022-12-07T16:18:59;5.20;99.90
19206;DHT22;59358;52.134;5.596;2022-12-07T16:21:26;5.20;99.90
19206;DHT22;59358;52.134;5.596;2022-12-07T16:23:53;5.20;99.90
19206;DHT22;59358;52.134;5.596;2022-12-07T16:26:21;5.20;99.90
19206;DHT22;59358;52.134;5.596;2022-12-07T16:28:51;5.20;99.90